createdAt,value
2023-02-19T00:01:43.532Z,3.29
2023-02-19T00:04:17.851Z,3.19
2023-02-19T00:06:46.278Z,3.18
2023-02-19T00:09:15.453Z,3.13
2023-02-19T00:11:44.423Z,3.10
2023-02-19T00:14:15.875Z,3.05
2023-02-19T00:16:42.988Z,3.00
2023-02-19T00:19:14.311Z,3.01
2023-02-19T00:21:41.611Z,3.02
2023-02-19T00:24:11.967Z,2.97
2023-02-19T00:26:40.803Z,2.90
2023-02-19T00:29:09.537Z,2.89
2023-02-19T00:31:36.760Z,2.91
2023-02-19T00:34:05.981Z,2.87
2023-02-19T00:36:36.095Z,2.90
2023-02-19T00:39:04.688Z,2.88
2023-02-19T00:41:32.677Z,2.83
2023-02-19T00:44:02.129Z,2.71
2023-02-19T00:46:33.327Z,2.81
2023-02-19T00:49:01.287Z,2.72
2023-02-19T00:51:33.523Z,2.46
2023-02-19T00:54:00.727Z,2.25
2023-02-19T00:56:28.218Z,2.25
2023-02-19T00:58:56.834Z,2.22
2023-02-19T01:01:24.083Z,2.32
2023-02-19T01:03:52.195Z,2.19
2023-02-19T01:06:20.983Z,2.18
2023-02-19T01:08:48.803Z,1.87
2023-02-19T01:11:16.532Z,1.91
2023-02-19T01:13:43.952Z,2.01
2023-02-19T01:16:18.072Z,2.03
2023-02-19T01:18:46.156Z,2.04
2023-02-19T01:21:16.184Z,2.08
2023-02-19T01:23:44.173Z,2.07
2023-02-19T01:26:15.127Z,2.15
2023-02-19T01:28:42.761Z,2.13
2023-02-19T01:31:13.972Z,2.21
2023-02-19T01:33:45.283Z,2.31
2023-02-19T01:36:12.809Z,2.25
2023-02-19T01:38:40.439Z,2.22
2023-02-19T01:41:10.536Z,2.19
2023-02-19T01:44:07.944Z,2.19
2023-02-19T01:46:41.367Z,2.17
2023-02-19T01:49:14.749Z,2.17
2023-02-19T01:51:47.452Z,2.17
2023-02-19T01:54:17.333Z,2.19
2023-02-19T01:56:48.765Z,2.20
2023-02-19T01:59:18.101Z,2.23
2023-02-19T02:01:45.409Z,2.25
2023-02-19T02:04:14.903Z,2.24
2023-02-19T02:06:52.208Z,2.21
2023-02-19T02:09:39.294Z,2.18
2023-02-19T02:12:07.145Z,2.00
2023-02-19T02:14:37.315Z,1.92
2023-02-19T02:17:36.732Z,1.81
2023-02-19T02:20:44.309Z,1.76
2023-02-19T02:23:20.256Z,1.56
2023-02-19T02:26:08.843Z,1.55
2023-02-19T02:28:42.399Z,1.40
2023-02-19T02:31:25.825Z,1.42
2023-02-19T02:34:07.637Z,1.31
2023-02-19T02:36:39.183Z,1.28
2023-02-19T02:39:11.616Z,1.32
2023-02-19T02:42:14.596Z,1.24
2023-02-19T02:45:04.688Z,1.16
2023-02-19T02:47:41.214Z,1.24
2023-02-19T02:50:26.468Z,1.24
2023-02-19T02:53:18.775Z,1.29
2023-02-19T02:55:49.688Z,1.22
2023-02-19T02:58:17.923Z,1.19
2023-02-19T03:01:10.511Z,1.10
2023-02-19T03:03:39.931Z,1.14
2023-02-19T03:06:11.825Z,1.25
2023-02-19T03:09:00.010Z,1.26
2023-02-19T03:11:47.127Z,1.22
2023-02-19T03:14:38.929Z,1.17
2023-02-19T03:17:34.174Z,1.13
2023-02-19T03:20:07.634Z,1.00
2023-02-19T03:22:37.853Z,1.12
2023-02-19T03:25:38.280Z,1.01
2023-02-19T03:28:08.748Z,1.12
2023-02-19T03:30:40.456Z,1.02
2023-02-19T03:33:14.119Z,1.04
2023-02-19T03:35:47.457Z,1.14
2023-02-19T03:38:26.698Z,1.22
2023-02-19T03:40:57.016Z,1.33
2023-02-19T03:43:38.643Z,1.37
2023-02-19T03:46:13.905Z,1.35
2023-02-19T03:48:50.961Z,1.36
2023-02-19T03:51:44.006Z,1.34
2023-02-19T03:54:35.231Z,1.40
2023-02-19T03:57:11.759Z,1.39
2023-02-19T03:59:54.020Z,1.33
2023-02-19T04:02:37.791Z,1.13
2023-02-19T04:05:14.101Z,1.05
2023-02-19T04:07:46.513Z,1.30
2023-02-19T04:10:16.401Z,1.30
2023-02-19T04:12:50.722Z,1.16
2023-02-19T04:15:22.840Z,1.14
2023-02-19T04:18:00.546Z,1.17
2023-02-19T04:20:30.889Z,1.16
2023-02-19T04:22:58.588Z,1.28
2023-02-19T04:25:27.800Z,1.38
2023-02-19T04:27:55.193Z,1.56
2023-02-19T04:30:22.644Z,1.70
2023-02-19T04:32:49.725Z,1.79
2023-02-19T04:35:16.893Z,1.82
2023-02-19T04:37:43.969Z,1.85
2023-02-19T04:40:11.344Z,1.81
2023-02-19T04:42:38.408Z,1.73
2023-02-19T04:45:05.852Z,1.66
2023-02-19T04:47:33.070Z,1.59
2023-02-19T04:50:00.159Z,1.55
2023-02-19T04:52:27.262Z,1.57
2023-02-19T04:54:54.388Z,1.58
2023-02-19T04:57:21.489Z,1.50
2023-02-19T04:59:48.576Z,1.41
2023-02-19T05:02:15.740Z,1.42
2023-02-19T05:04:42.905Z,1.32
2023-02-19T05:07:10.330Z,1.38
2023-02-19T05:09:37.456Z,1.32
2023-02-19T05:12:04.641Z,1.40
2023-02-19T05:14:31.729Z,1.50
2023-02-19T05:16:58.818Z,1.75
2023-02-19T05:19:25.861Z,1.73
2023-02-19T05:21:52.952Z,1.87
2023-02-19T05:24:20.113Z,1.77
2023-02-19T05:26:48.216Z,1.74
2023-02-19T05:29:15.451Z,1.75
2023-02-19T05:31:42.610Z,1.82
2023-02-19T05:34:09.776Z,1.63
2023-02-19T05:36:37.532Z,1.66
2023-02-19T05:39:06.238Z,1.74
2023-02-19T05:41:33.369Z,1.78
2023-02-19T05:44:00.645Z,1.78
2023-02-19T05:46:32.573Z,1.79
2023-02-19T05:48:59.750Z,1.61
2023-02-19T05:51:27.583Z,1.59
2023-02-19T05:53:56.324Z,1.55
2023-02-19T05:56:33.977Z,1.73
2023-02-19T05:59:03.994Z,1.78
2023-02-19T06:01:31.227Z,1.68
2023-02-19T06:03:58.494Z,1.60
2023-02-19T06:06:27.278Z,1.58
2023-02-19T06:08:55.142Z,1.54
2023-02-19T06:11:23.325Z,1.70
2023-02-19T06:13:50.768Z,1.69
2023-02-19T06:16:18.787Z,1.76
2023-02-19T06:18:46.166Z,1.77
2023-02-19T06:21:15.088Z,1.74
2023-02-19T06:23:43.232Z,1.77
2023-02-19T06:26:19.837Z,1.81
2023-02-19T06:28:49.234Z,1.84
2023-02-19T06:31:17.113Z,1.86
2023-02-19T06:33:44.903Z,1.88
2023-02-19T06:36:17.819Z,1.98
2023-02-19T06:38:45.208Z,2.07
2023-02-19T06:41:13.439Z,2.19
2023-02-19T06:43:40.912Z,2.13
2023-02-19T06:46:08.184Z,2.14
2023-02-19T06:48:35.614Z,2.23
2023-02-19T06:51:03.119Z,2.35
2023-02-19T06:53:30.381Z,2.39
2023-02-19T06:56:03.509Z,2.48
2023-02-19T06:58:31.439Z,2.59
2023-02-19T07:00:58.973Z,2.73
2023-02-19T07:03:26.522Z,2.92
2023-02-19T07:05:53.778Z,3.00
2023-02-19T07:08:21.060Z,3.11
2023-02-19T07:10:56.541Z,3.29
2023-02-19T07:13:25.183Z,3.35
2023-02-19T07:15:57.631Z,3.52
2023-02-19T07:18:24.815Z,3.60
2023-02-19T07:20:51.890Z,3.68
2023-02-19T07:23:18.973Z,3.87
2023-02-19T07:25:46.066Z,3.97
2023-02-19T07:28:13.152Z,4.03
2023-02-19T07:30:40.275Z,4.15
2023-02-19T07:33:10.112Z,4.29
2023-02-19T07:35:37.596Z,4.47
2023-02-19T07:38:04.668Z,4.63
2023-02-19T07:40:31.732Z,4.89
2023-02-19T07:43:00.146Z,5.13
2023-02-19T07:45:27.305Z,5.14
2023-02-19T07:47:54.445Z,5.32
2023-02-19T07:50:21.608Z,5.53
2023-02-19T07:52:48.676Z,5.71
2023-02-19T07:55:15.803Z,5.90
2023-02-19T07:57:42.909Z,5.97
2023-02-19T08:00:10.729Z,6.16
2023-02-19T08:02:58.934Z,6.50
2023-02-19T08:05:30.669Z,6.72
2023-02-19T08:07:59.288Z,6.83
2023-02-19T08:10:45.943Z,6.99
2023-02-19T08:13:25.188Z,7.32
2023-02-19T08:16:18.381Z,7.52
2023-02-19T08:18:49.436Z,7.81
2023-02-19T08:21:20.454Z,8.03
2023-02-19T08:23:49.935Z,8.26
2023-02-19T08:26:18.256Z,8.43
2023-02-19T08:28:45.568Z,8.55
2023-02-19T08:31:13.082Z,8.85
2023-02-19T08:33:40.788Z,9.03
2023-02-19T08:36:09.372Z,9.15
2023-02-19T08:38:36.724Z,9.33
2023-02-19T08:41:09.707Z,9.50
2023-02-19T08:43:37.157Z,9.72
2023-02-19T08:46:05.090Z,9.88
2023-02-19T08:48:32.715Z,10.00
2023-02-19T08:51:03.860Z,9.98
2023-02-19T08:53:32.485Z,10.24
2023-02-19T08:56:06.872Z,10.31
2023-02-19T08:58:34.073Z,10.54
2023-02-19T09:01:01.217Z,10.69
2023-02-19T09:03:28.395Z,11.07
2023-02-19T09:05:55.476Z,11.10
2023-02-19T09:08:22.551Z,11.44
2023-02-19T09:11:04.495Z,11.65
2023-02-19T09:13:31.651Z,11.98
2023-02-19T09:15:58.832Z,11.90
2023-02-19T09:18:26.339Z,12.00
2023-02-19T09:20:53.468Z,12.35
2023-02-19T09:23:20.594Z,12.69
2023-02-19T09:25:47.653Z,12.89
2023-02-19T09:28:15.546Z,13.00
2023-02-19T09:30:42.668Z,13.05
2023-02-19T09:33:09.768Z,13.29
2023-02-19T09:35:39.695Z,13.54
2023-02-19T09:38:07.120Z,13.52
2023-02-19T09:40:35.650Z,13.40
2023-02-19T09:43:09.757Z,13.62
2023-02-19T09:45:38.105Z,13.68
2023-02-19T09:48:06.369Z,14.06
2023-02-19T09:50:40.864Z,14.30
2023-02-19T09:53:16.952Z,14.32
2023-02-19T09:55:44.967Z,14.18
2023-02-19T09:58:25.698Z,14.42
2023-02-19T10:00:55.256Z,14.65
2023-02-19T10:03:39.125Z,14.77
2023-02-19T10:06:12.265Z,14.81
2023-02-19T10:08:40.400Z,14.78
2023-02-19T10:11:11.774Z,15.10
2023-02-19T10:13:46.701Z,15.57
2023-02-19T10:16:17.516Z,15.66
2023-02-19T10:18:46.405Z,15.77
2023-02-19T10:21:23.083Z,15.88
2023-02-19T10:23:55.567Z,15.94
2023-02-19T10:26:24.153Z,15.91
2023-02-19T10:28:51.410Z,15.91
2023-02-19T10:31:21.963Z,15.92
2023-02-19T10:33:58.076Z,15.53
2023-02-19T10:36:44.869Z,15.31
2023-02-19T10:39:30.459Z,15.00
2023-02-19T10:41:58.721Z,15.47
2023-02-19T10:44:29.072Z,15.70
2023-02-19T10:46:59.227Z,15.74
2023-02-19T10:49:30.121Z,15.53
2023-02-19T10:52:02.436Z,15.75
2023-02-19T10:54:32.520Z,15.59
2023-02-19T10:57:14.738Z,15.88
2023-02-19T11:00:01.120Z,15.96
2023-02-19T11:02:30.182Z,15.79
2023-02-19T11:05:09.174Z,15.63
2023-02-19T11:07:37.537Z,15.83
2023-02-19T11:10:07.076Z,15.99
2023-02-19T11:12:35.048Z,16.09
2023-02-19T11:15:28.712Z,16.01
2023-02-19T11:18:11.949Z,16.13
2023-02-19T11:20:54.581Z,16.16
2023-02-19T11:23:37.462Z,15.86
2023-02-19T11:26:18.724Z,15.74
2023-02-19T11:28:45.801Z,15.73
2023-02-19T11:31:20.277Z,15.78
2023-02-19T11:34:02.542Z,15.66
2023-02-19T11:36:31.055Z,15.71
2023-02-19T11:39:02.684Z,15.84
2023-02-19T11:42:07.770Z,15.70
2023-02-19T11:44:58.074Z,16.00
2023-02-19T11:47:55.798Z,16.02
2023-02-19T11:50:44.477Z,15.61
2023-02-19T11:53:28.950Z,16.02
2023-02-19T11:56:14.678Z,15.90
2023-02-19T11:58:53.581Z,16.27
2023-02-19T12:01:29.773Z,16.43
2023-02-19T12:04:26.877Z,16.40
2023-02-19T12:07:27.793Z,16.25
2023-02-19T12:10:00.660Z,16.23
2023-02-19T12:12:37.856Z,16.35
2023-02-19T12:15:25.273Z,16.48
2023-02-19T12:18:04.578Z,16.49
2023-02-19T12:20:50.157Z,16.43
2023-02-19T12:23:49.349Z,16.26
2023-02-19T12:26:16.363Z,16.50
2023-02-19T12:29:23.035Z,16.55
2023-02-19T12:31:58.801Z,16.21
2023-02-19T12:34:31.582Z,15.94
2023-02-19T12:37:05.413Z,16.31
2023-02-19T12:40:05.330Z,16.21
2023-02-19T12:43:08.944Z,15.90
2023-02-19T12:45:42.705Z,16.18
2023-02-19T12:48:27.985Z,15.93
2023-02-19T12:51:05.153Z,16.18
2023-02-19T12:53:35.250Z,16.24
2023-02-19T12:56:10.589Z,16.36
2023-02-19T12:58:45.689Z,16.61
2023-02-19T13:01:23.233Z,16.58
2023-02-19T13:04:01.991Z,16.43
2023-02-19T13:06:41.654Z,16.60
2023-02-19T13:09:23.597Z,16.67
2023-02-19T13:12:01.758Z,16.46
2023-02-19T13:14:28.778Z,16.32
2023-02-19T13:17:04.210Z,16.35
2023-02-19T13:19:32.844Z,16.37
2023-02-19T13:22:34.713Z,16.23
2023-02-19T13:25:03.444Z,16.19
2023-02-19T13:27:42.334Z,16.13
2023-02-19T13:30:33.396Z,16.03
2023-02-19T13:33:15.805Z,16.30
2023-02-19T13:36:12.581Z,16.10
2023-02-19T13:38:43.476Z,16.01
2023-02-19T13:41:31.659Z,16.17
2023-02-19T13:44:16.518Z,15.87
2023-02-19T13:46:46.177Z,16.02
2023-02-19T13:49:42.493Z,15.95
2023-02-19T13:52:28.069Z,15.89
2023-02-19T13:55:32.659Z,15.55
2023-02-19T13:58:33.747Z,15.64
2023-02-19T14:01:03.656Z,15.59
2023-02-19T14:03:54.618Z,15.54
2023-02-19T14:06:21.824Z,15.79
2023-02-19T14:08:56.622Z,15.66
2023-02-19T14:11:41.877Z,15.78
2023-02-19T14:14:37.666Z,15.54
2023-02-19T14:17:24.420Z,15.64
2023-02-19T14:20:00.300Z,15.74
2023-02-19T14:22:52.427Z,15.62
2023-02-19T14:25:31.778Z,15.63
2023-02-19T14:28:11.293Z,15.29
2023-02-19T14:31:00.994Z,15.48
2023-02-19T14:34:03.144Z,15.66
2023-02-19T14:36:48.858Z,15.48
2023-02-19T14:39:26.044Z,15.42
2023-02-19T14:41:57.120Z,15.77
2023-02-19T14:44:30.078Z,15.71
2023-02-19T14:47:05.432Z,15.88
2023-02-19T14:49:35.201Z,16.10
2023-02-19T14:52:10.560Z,16.40
2023-02-19T14:54:50.753Z,16.65
2023-02-19T14:57:22.050Z,17.02
2023-02-19T14:59:58.616Z,17.07
2023-02-19T15:02:27.523Z,17.30
2023-02-19T15:04:55.399Z,17.51
2023-02-19T15:07:27.560Z,17.84
2023-02-19T15:09:58.644Z,17.90
2023-02-19T15:12:31.718Z,17.61
2023-02-19T15:15:03.000Z,17.68
2023-02-19T15:17:33.604Z,18.01
2023-02-19T15:20:05.207Z,18.21
2023-02-19T15:22:32.697Z,17.68
2023-02-19T15:25:05.095Z,17.45
2023-02-19T15:27:34.233Z,17.14
2023-02-19T15:30:01.353Z,16.94
2023-02-19T15:32:28.736Z,16.65
2023-02-19T15:35:01.422Z,16.52
2023-02-19T15:37:35.188Z,16.45
2023-02-19T15:40:07.531Z,16.22
2023-02-19T15:42:37.141Z,16.07
2023-02-19T15:45:17.639Z,15.90
2023-02-19T15:48:04.478Z,15.83
2023-02-19T15:50:39.190Z,15.90
2023-02-19T15:53:29.548Z,15.82
2023-02-19T15:56:09.241Z,15.75
2023-02-19T15:58:46.989Z,15.76
2023-02-19T16:01:40.395Z,15.54
2023-02-19T16:04:14.536Z,15.37
2023-02-19T16:07:01.769Z,15.41
2023-02-19T16:09:29.060Z,15.39
2023-02-19T16:11:59.405Z,15.04
2023-02-19T16:14:32.227Z,14.88
2023-02-19T16:17:11.371Z,14.59
2023-02-19T16:19:58.553Z,14.46
2023-02-19T16:22:29.218Z,14.24
2023-02-19T16:25:00.488Z,14.02
2023-02-19T16:27:31.138Z,13.78
2023-02-19T16:30:01.076Z,13.48
2023-02-19T16:32:28.423Z,13.30
2023-02-19T16:34:55.661Z,12.96
2023-02-19T16:37:33.097Z,12.68
2023-02-19T16:40:09.052Z,12.50
2023-02-19T16:42:56.924Z,12.31
2023-02-19T16:45:27.342Z,12.19
2023-02-19T16:47:54.597Z,12.03
2023-02-19T16:50:24.819Z,11.82
2023-02-19T16:52:54.349Z,11.66
2023-02-19T16:55:22.251Z,11.56
2023-02-19T16:57:49.981Z,11.44
2023-02-19T17:00:22.209Z,11.26
2023-02-19T17:02:51.955Z,11.15
2023-02-19T17:05:20.732Z,11.07
2023-02-19T17:07:48.482Z,10.94
2023-02-19T17:10:22.944Z,10.83
2023-02-19T17:12:50.891Z,10.79
2023-02-19T17:15:18.382Z,10.73
2023-02-19T17:17:45.572Z,10.61
2023-02-19T17:20:18.269Z,10.52
2023-02-19T17:22:45.365Z,10.47
2023-02-19T17:25:12.464Z,10.49
2023-02-19T17:27:41.091Z,10.46
2023-02-19T17:30:16.527Z,10.35
2023-02-19T17:32:43.634Z,10.28
2023-02-19T17:35:10.828Z,10.22
2023-02-19T17:37:37.942Z,10.16
2023-02-19T17:40:31.741Z,10.15
2023-02-19T17:42:59.616Z,10.08
2023-02-19T17:45:26.792Z,9.93
2023-02-19T17:47:53.916Z,9.83
2023-02-19T17:50:24.567Z,9.80
2023-02-19T17:52:51.891Z,9.68
2023-02-19T17:55:19.594Z,9.70
2023-02-19T17:57:51.046Z,9.60
2023-02-19T18:00:21.373Z,9.39
2023-02-19T18:02:48.560Z,9.22
2023-02-19T18:05:15.805Z,9.11
2023-02-19T18:07:43.552Z,9.21
2023-02-19T18:10:11.263Z,9.21
2023-02-19T18:12:39.648Z,9.01
2023-02-19T18:15:08.291Z,8.84
2023-02-19T18:17:35.612Z,8.77
2023-02-19T18:20:04.613Z,8.76
2023-02-19T18:22:32.306Z,8.74
2023-02-19T18:24:59.568Z,8.61
2023-02-19T18:27:26.727Z,8.51
2023-02-19T18:29:55.453Z,8.48
2023-02-19T18:32:25.044Z,8.37
2023-02-19T18:34:55.193Z,8.32
2023-02-19T18:37:24.472Z,8.28
2023-02-19T18:39:52.281Z,8.24
2023-02-19T18:42:20.968Z,8.21
2023-02-19T18:44:49.017Z,8.19
2023-02-19T18:47:17.592Z,8.14
2023-02-19T18:49:53.224Z,8.16
2023-02-19T18:52:23.831Z,8.17
2023-02-19T18:54:52.191Z,8.09
2023-02-19T18:57:21.326Z,8.03
2023-02-19T18:59:49.024Z,7.97
2023-02-19T19:02:16.380Z,7.91
2023-02-19T19:04:48.154Z,7.80
2023-02-19T19:07:15.368Z,7.72
2023-02-19T19:09:42.460Z,7.63
2023-02-19T19:12:09.618Z,7.57
2023-02-19T19:14:37.392Z,7.52
2023-02-19T19:17:04.759Z,7.41
2023-02-19T19:19:31.922Z,7.29
2023-02-19T19:21:58.993Z,7.27
2023-02-19T19:24:26.195Z,7.22
2023-02-19T19:26:53.492Z,7.25
2023-02-19T19:29:22.077Z,7.17
2023-02-19T19:31:49.767Z,7.12
2023-02-19T19:34:17.925Z,7.11
2023-02-19T19:36:45.575Z,7.06
2023-02-19T19:39:13.437Z,6.93
2023-02-19T19:41:40.507Z,6.84
2023-02-19T19:44:08.705Z,6.90
2023-02-19T19:46:43.055Z,6.93
2023-02-19T19:49:10.173Z,6.91
2023-02-19T19:51:37.376Z,6.84
2023-02-19T19:54:04.960Z,6.81
2023-02-19T19:56:32.094Z,6.78
2023-02-19T19:58:59.202Z,6.68
2023-02-19T20:01:26.282Z,6.59
2023-02-19T20:03:53.372Z,6.61
2023-02-19T20:06:28.843Z,6.66
2023-02-19T20:08:56.677Z,6.61
2023-02-19T20:11:23.982Z,6.57
2023-02-19T20:13:51.486Z,6.46
2023-02-19T20:16:24.288Z,6.35
2023-02-19T20:18:51.363Z,6.28
2023-02-19T20:21:18.602Z,6.34
2023-02-19T20:23:45.899Z,6.23
2023-02-19T20:26:13.032Z,6.28
2023-02-19T20:28:45.046Z,6.32
2023-02-19T20:31:12.590Z,6.30
2023-02-19T20:33:39.890Z,6.33
2023-02-19T20:36:07.621Z,6.39
2023-02-19T20:38:34.686Z,6.45
2023-02-19T20:41:02.567Z,6.27
2023-02-19T20:43:29.665Z,6.21
2023-02-19T20:45:56.730Z,6.05
2023-02-19T20:48:23.850Z,6.01
2023-02-19T20:50:50.920Z,5.95
2023-02-19T20:53:17.994Z,5.96
2023-02-19T20:55:45.081Z,6.10
2023-02-19T20:58:12.201Z,5.96
2023-02-19T21:00:39.331Z,6.15
2023-02-19T21:03:08.969Z,6.15
2023-02-19T21:05:37.026Z,5.95
2023-02-19T21:08:04.908Z,5.97
2023-02-19T21:10:31.982Z,5.90
2023-02-19T21:12:59.069Z,5.76
2023-02-19T21:15:26.165Z,5.65
2023-02-19T21:17:53.257Z,5.71
2023-02-19T21:20:20.888Z,5.82
2023-02-19T21:22:47.976Z,5.81
2023-02-19T21:25:15.110Z,5.78
2023-02-19T21:27:42.201Z,5.71
2023-02-19T21:30:09.544Z,5.58
2023-02-19T21:32:36.712Z,5.43
2023-02-19T21:35:04.060Z,5.33
2023-02-19T21:37:31.316Z,5.28
2023-02-19T21:40:00.341Z,5.48
2023-02-19T21:42:27.600Z,5.35
2023-02-19T21:44:54.786Z,5.21
2023-02-19T21:47:21.870Z,5.05
2023-02-19T21:49:48.980Z,5.22
2023-02-19T21:52:16.139Z,5.20
2023-02-19T21:54:43.228Z,5.28
2023-02-19T21:57:10.406Z,5.37
2023-02-19T21:59:37.552Z,5.37
2023-02-19T22:02:04.674Z,5.53
2023-02-19T22:04:31.759Z,5.60
2023-02-19T22:06:58.874Z,5.67
2023-02-19T22:09:26.013Z,5.74
2023-02-19T22:11:53.113Z,5.78
2023-02-19T22:14:20.324Z,5.80
2023-02-19T22:16:47.504Z,5.88
2023-02-19T22:19:14.678Z,5.89
2023-02-19T22:21:44.330Z,5.90
2023-02-19T22:24:21.306Z,6.01
2023-02-19T22:26:50.516Z,6.06
2023-02-19T22:29:18.041Z,6.13
2023-02-19T22:31:45.262Z,6.08
2023-02-19T22:34:12.571Z,6.01
2023-02-19T22:36:40.376Z,5.95
2023-02-19T22:39:15.102Z,5.87
2023-02-19T22:41:43.306Z,5.83
2023-02-19T22:44:11.208Z,5.78
2023-02-19T22:46:38.283Z,5.78
2023-02-19T22:49:06.575Z,5.74
2023-02-19T22:51:35.540Z,5.69
2023-02-19T22:54:02.697Z,5.70
2023-02-19T22:56:29.905Z,5.68
2023-02-19T22:58:58.740Z,5.61
2023-02-19T23:01:25.892Z,5.61
2023-02-19T23:03:55.423Z,5.63
2023-02-19T23:06:30.812Z,5.54
2023-02-19T23:09:01.868Z,5.52
2023-02-19T23:11:32.376Z,5.51
2023-02-19T23:13:59.530Z,5.54
2023-02-19T23:16:27.310Z,5.53
2023-02-19T23:18:55.262Z,5.48
2023-02-19T23:21:23.098Z,5.38
2023-02-19T23:23:50.600Z,5.32
2023-02-19T23:26:18.298Z,5.23
2023-02-19T23:28:46.430Z,5.24
2023-02-19T23:31:14.366Z,5.18
2023-02-19T23:33:42.392Z,5.13
2023-02-19T23:36:10.690Z,5.07
2023-02-19T23:38:38.076Z,4.99
2023-02-19T23:41:10.551Z,4.92
2023-02-19T23:43:38.049Z,4.83
2023-02-19T23:46:05.636Z,4.78
2023-02-19T23:48:32.938Z,4.78
2023-02-19T23:51:00.276Z,4.81
2023-02-19T23:53:27.427Z,4.84
2023-02-19T23:55:54.846Z,4.96
2023-02-19T23:58:21.917Z,4.78
